Latest Weather Observations for Grafton Airport

IDN60801

Issued at 5:32 am EDT Tuesday 21 November 2017 (issued every 30 minutes, with the page automatically refreshed every 10 minutes)

About weather observations | Map of weather stations | Latest weather observations for NSW | Other Formats
Station Details ID: 058161 Name: GRAFTON AIRPORT AWS Lat: -29.76 Lon: 153.03 Height: 25.09 m
Data from the previous 72 hours. | See also: Recent months at Grafton Airport
Date/Time
EDT
Temp
°C
App
Temp
°C
Dew
Point
°C
Rel
Hum
%
Delta-T
°C
Wind Press
QNH
hPa
Press
MSL
hPa
Rain since
9am
mm
Dir  Spd
km/h
Gust
km/h
Spd
kts
Gust
kts
21/05:30am 15.9 16.2 14.9 94 0.6 SSW 7 9 4 5 1020.2 1020.1 4.2
21/05:00am 15.8 15.6 14.8 94 0.6 SSW 9 11 5 6 1020.0 1019.9 3.8
21/04:30am 15.2 14.5 14.2 94 0.6 S 11 15 6 8 1020.0 1019.9 3.8
21/04:00am 14.3 13.6 13.3 94 0.6 S 9 11 5 6 1019.8 1019.7 3.8
21/03:30am 14.5 14.3 13.5 94 0.6 SSW 7 9 4 5 1020.0 1019.9 3.8
21/03:00am 15.0 14.9 13.9 93 0.6 SSW 7 9 4 5 1020.1 1020.0 3.8
21/02:44am 14.9 14.4 13.8 93 0.6 SSW 9 11 5 6 1020.3 1020.2 3.8
21/02:30am 15.0 14.5 13.9 93 0.6 SSW 9 11 5 6 1020.4 1020.3 3.8
21/02:20am 15.0 14.8 13.7 92 0.7 SSW 7 9 4 5 1020.5 1020.4 3.8
21/02:00am 15.6 15.8 14.3 92 0.7 SSW 6 9 3 5 1020.6 1020.5 3.8
21/01:30am 16.4 16.7 15.1 92 0.8 SSW 7 9 4 5 1020.9 1020.8 3.8
21/01:00am 16.3 15.8 15.0 92 0.7 S 11 13 6 7 1021.2 1021.1 3.6
21/12:30am 16.4 16.9 14.9 91 0.9 SSW 6 7 3 4 1021.4 1021.3 3.6
21/12:00am 16.9 17.3 15.2 90 1.0 SSW 7 9 4 5 1021.7 1021.6 3.6
 
Date/Time
EDT
Temp
°C
App
Temp
°C
Dew
Point
°C
Rel
Hum
%
Delta-T
°C
Wind Press
QNH
hPa
Press
MSL
hPa
Rain since
9am
mm
Dir  Spd
km/h
Gust
km/h
Spd
kts
Gust
kts
20/11:30pm 17.1 17.5 15.3 89 1.0 SSW 7 9 4 5 1021.8 1021.7 3.6
20/11:00pm 17.0 16.9 15.0 88 1.2 SSW 9 9 5 5 1021.7 1021.6 3.6
20/10:30pm 17.4 17.3 15.0 86 1.4 S 9 11 5 6 1021.8 1021.7 3.6
20/10:00pm 18.3 17.7 15.7 85 1.5 S 13 20 7 11 1021.9 1021.8 3.6
20/09:30pm 17.6 17.8 14.7 83 1.7 S 7 9 4 5 1021.8 1021.7 3.2
20/09:15pm 17.8 17.2 14.7 82 1.8 SSW 11 19 6 10 1021.8 1021.7 3.2
20/09:00pm 18.1 18.4 14.6 80 2.0 SE 6 9 3 5 1021.9 1021.8 2.8
20/08:56pm 18.3 18.5 14.8 80 2.0 SSE 7 9 4 5 1021.8 1021.7 2.6
20/08:30pm 18.4 18.6 14.3 77 2.4 S 6 9 3 5 1021.5 1021.4 2.2
20/08:00pm 19.3 18.7 14.6 74 2.7 SE 11 15 6 8 1021.5 1021.4 2.2
20/07:30pm 19.4 19.0 14.0 71 3.1 SSE 9 15 5 8 1021.5 1021.4 2.2
20/07:00pm 19.9 18.6 13.6 67 3.6 SE 13 19 7 10 1021.3 1021.2 2.2
20/06:30pm 21.4 19.5 13.1 59 4.7 SE 15 22 8 12 1021.0 1020.9 2.2
20/06:00pm 22.1 20.9 14.0 60 4.7 SE 13 20 7 11 1020.7 1020.6 2.2
20/05:30pm 22.1 19.3 12.6 55 5.4 ESE 19 39 10 21 1020.6 1020.5 2.2
20/05:00pm 22.7 19.8 12.9 54 5.6 SE 20 30 11 16 1020.4 1020.3 2.2
20/04:30pm 22.4 19.5 12.9 55 5.4 SSE 20 35 11 19 1020.6 1020.5 2.2
20/04:00pm 22.2 20.7 14.1 60 4.7 SE 15 26 8 14 1020.8 1020.7 2.2
20/03:30pm 21.6 21.0 14.5 64 4.2 ESE 11 22 6 12 1021.0 1020.9 2.2
20/03:00pm 20.4 18.0 12.6 61 4.4 ESE 17 22 9 12 1021.4 1021.3 2.2
20/02:30pm 21.3 18.3 12.7 58 4.9 SE 20 35 11 19 1021.7 1021.6 2.2
20/02:00pm 21.5 20.2 14.9 66 3.9 SE 15 20 8 11 1021.7 1021.6 2.2
20/01:30pm 21.2 19.5 18.0 82 2.0 SSE 24 43 13 23 1022.1 1022.0 2.2
20/01:00pm 18.8 17.3 15.3 80 2.0 S 17 24 9 13 1022.2 1022.1 2.2
20/12:52pm 18.9 17.3 15.0 78 2.3 SE 17 26 9 14 1022.1 1022.0 2.0
20/12:39pm 19.2 16.4 14.2 73 2.9 SE 22 35 12 19 1022.2 1022.1 2.0
20/12:30pm 20.4 18.2 14.5 69 3.4 SE 19 33 10 18 1022.1 1022.0 1.6
20/12:00pm 22.8 21.4 17.0 70 3.6 SE 20 32 11 17 1021.8 1021.7 1.6
20/11:37am 21.0 21.7 17.0 78 2.4 SE 9 15 5 8 1021.9 1021.8 1.6
20/11:30am 19.6 19.6 15.3 76 2.5 SE 9 19 5 10 1022.0 1021.9 1.6
20/11:17am 19.6 16.8 13.1 66 3.7 S 20 30 11 16 1022.3 1022.2 1.4
20/11:00am 22.0 21.8 15.6 67 3.8 SSW 11 17 6 9 1022.2 1022.1 0.0
20/10:30am 21.2 19.4 15.5 70 3.4 S 19 26 10 14 1022.4 1022.3 0.0
20/10:00am 21.0 19.3 15.8 72 3.1 S 19 30 10 16 1022.2 1022.1 0.0
20/09:30am 20.6 19.1 16.4 77 2.5 SSW 19 28 10 15 1022.0 1021.9 0.0
20/09:00am 20.3 19.1 17.5 84 1.7 S 20 33 11 18 1022.2 1022.1 2.6
20/08:30am 19.0 18.5 17.0 88 1.2 S 15 22 8 12 1021.9 1021.8 2.6
20/08:00am 18.3 18.6 17.0 92 0.8 S 11 13 6 7 1021.7 1021.6 2.4
20/07:30am 17.7 18.2 16.6 93 0.7 SW 9 13 5 7 1021.1 1021.0 2.4
20/07:00am 16.8 17.4 15.8 94 0.6 SSW 7 11 4 6 1021.0 1020.9 2.4
20/06:30am 15.1 15.3 14.1 94 0.6 SSW 6 7 3 4 1020.7 1020.6 2.4
20/06:00am 15.1 15.1 14.1 94 0.6 SSW 7 11 4 6 1020.4 1020.3 2.4
20/05:30am 14.7 14.2 13.7 94 0.6 S 9 9 5 5 1020.0 1019.9 2.4
20/05:00am 14.9 14.8 13.8 93 0.6 SSW 7 9 4 5 1019.7 1019.6 2.4
20/04:30am 14.9 14.8 13.8 93 0.6 SSW 7 9 4 5 1019.7 1019.6 2.4
20/04:00am 15.3 15.3 14.2 93 0.6 SSW 7 11 4 6 1019.8 1019.7 2.4
20/03:30am 15.6 15.7 14.5 93 0.6 SW 7 11 4 6 1019.9 1019.8 2.4
20/03:00am 15.3 15.3 14.2 93 0.6 SSW 7 9 4 5 1019.9 1019.8 2.4
20/02:30am 15.4 15.4 14.1 92 0.7 SW 7 9 4 5 1020.0 1019.9 2.4
20/02:00am 15.3 15.2 14.0 92 0.7 SSW 7 9 4 5 1020.2 1020.1 2.4
20/01:30am 15.8 15.8 14.3 91 0.9 SSW 7 9 4 5 1020.4 1020.3 2.4
20/01:00am 15.5 15.4 14.0 91 0.8 SSW 7 9 4 5 1020.6 1020.5 2.4
20/12:30am 15.7 15.3 14.1 90 0.9 SSW 9 11 5 6 1020.9 1020.8 2.4
20/12:00am 15.8 15.4 14.0 89 1.0 SSW 9 11 5 6 1021.2 1021.1 2.4
 
Date/Time
EDT
Temp
°C
App
Temp
°C
Dew
Point
°C
Rel
Hum
%
Delta-T
°C
Wind Press
QNH
hPa
Press
MSL
hPa
Rain since
9am
mm
Dir  Spd
km/h
Gust
km/h
Spd
kts
Gust
kts
19/11:30pm 16.1 16.1 14.1 88 1.1 SSW 7 9 4 5 1021.2 1021.1 2.4
19/11:00pm 16.7 16.8 14.5 87 1.3 SSW 7 11 4 6 1021.4 1021.3 2.4
19/10:30pm 17.1 17.3 14.7 86 1.4 SW 7 15 4 8 1021.5 1021.4 2.4
19/10:00pm 17.1 17.3 14.6 85 1.4 SW 7 9 4 5 1021.4 1021.3 2.4
19/09:30pm 17.5 17.9 14.8 84 1.6 SSW 6 9 3 5 1021.3 1021.2 2.4
19/09:00pm 17.3 16.9 14.2 82 1.8 SW 9 11 5 6 1021.0 1020.9 2.4
19/08:30pm 17.7 17.3 14.0 79 2.1 SW 9 13 5 7 1020.6 1020.5 2.4
19/08:00pm 17.8 17.6 13.5 76 2.4 SW 7 9 4 5 1020.4 1020.3 2.4
19/07:30pm 18.8 18.2 13.4 71 3.1 SW 9 15 5 8 1020.3 1020.2 2.4
19/07:00pm 19.5 18.9 13.4 68 3.5 S 9 11 5 6 1020.0 1019.9 2.4
19/06:30pm 20.0 18.9 13.0 64 4.0 SSE 11 17 6 9 1019.7 1019.6 2.4
19/06:00pm 20.8 18.2 12.0 57 4.9 SE 17 28 9 15 1019.6 1019.5 2.4
19/05:30pm 22.2 19.6 11.9 52 5.8 SE 17 24 9 13 1019.2 1019.1 2.4
19/05:00pm 23.4 21.0 12.7 51 6.1 SE 17 26 9 14 1018.9 1018.8 2.4
19/04:30pm 23.3 20.5 12.6 51 6.1 SE 19 28 10 15 1018.8 1018.7 2.4
19/04:00pm 23.4 20.8 12.1 49 6.4 SE 17 30 9 16 1018.9 1018.8 2.4
19/03:30pm 23.8 20.9 12.4 48 6.5 SE 19 32 10 17 1019.1 1019.0 2.4
19/03:00pm 23.8 20.9 12.4 48 6.5 ESE 19 30 10 16 1019.3 1019.2 2.4
19/02:30pm 23.6 20.6 12.0 48 6.6 ESE 19 28 10 15 1019.6 1019.5 2.4
19/02:00pm 23.4 20.5 13.0 52 6.0 SSE 20 30 11 16 1019.8 1019.7 2.4
19/01:30pm 23.3 20.9 12.6 51 6.1 SE 17 26 9 14 1019.9 1019.8 2.4
19/01:00pm 23.0 20.5 13.5 55 5.5 SE 19 30 10 16 1020.1 1020.0 2.4
19/12:30pm 23.1 20.1 12.7 52 6.0 E 20 32 11 17 1020.3 1020.2 2.4
19/12:00pm 23.5 20.6 12.8 51 6.1 ESE 20 33 11 18 1020.4 1020.3 2.4
19/11:30am 23.6 21.0 13.8 54 5.7 SE 20 30 11 16 1020.6 1020.5 2.4
19/11:00am 22.9 21.1 14.5 59 4.9 ESE 17 33 9 18 1020.5 1020.4 2.4
19/10:30am 22.0 20.2 15.4 66 3.9 SE 19 28 10 15 1020.4 1020.3 2.4
19/10:00am 21.6 19.8 17.0 75 2.8 SE 22 32 12 17 1020.2 1020.1 2.4
19/09:53am 21.3 20.2 17.3 78 2.5 SE 19 30 10 16 1020.2 1020.1 2.4
19/09:32am 19.4 17.7 14.6 74 2.8 ESE 17 26 9 14 1020.2 1020.1 1.4
19/09:30am 19.8 17.8 15.0 74 2.8 SE 19 26 10 14 1020.1 1020.0 0.0
19/09:00am 21.4 22.9 19.0 86 1.5 SSE 9 13 5 7 1019.8 1019.7 0.4
19/08:30am 19.9 21.2 18.4 91 0.9 SSW 9 13 5 7 1019.8 1019.7 0.4
19/08:00am 18.6 19.0 17.3 92 0.8 SSW 11 15 6 8 1019.7 1019.6 0.4
19/07:30am 18.0 18.7 17.0 94 0.6 SW 9 13 5 7 1019.1 1019.0 0.4
19/07:00am 15.9 15.8 14.9 94 0.6 SSW 9 13 5 7 1018.7 1018.6 0.4
19/06:30am 15.5 15.8 14.4 93 0.6 SW 6 7 3 4 1018.3 1018.2 0.4
19/06:00am 15.3 15.3 14.2 93 0.6 SW 7 9 4 5 1018.1 1018.0 0.4
19/05:30am 15.5 16.5 14.4 93 0.6 WSW 2 6 1 3 1017.7 1017.6 0.4
19/05:00am 15.8 16.0 14.7 93 0.6 WNW 7 11 4 6 1017.6 1017.5 0.4
19/04:30am 16.0 15.5 14.9 93 0.6 S 11 15 6 8 1017.6 1017.5 0.4
19/04:00am 15.5 15.8 14.4 93 0.6 WSW 6 7 3 4 1017.6 1017.5 0.4
19/03:30am 15.9 15.7 14.8 93 0.6 ESE 9 15 5 8 1017.9 1017.8 0.4
19/03:00am 15.6 15.0 14.5 93 0.6 SSW 11 13 6 7 1017.7 1017.6 0.4
19/02:30am 15.3 14.9 14.2 93 0.6 SW 9 11 5 6 1017.8 1017.7 0.4
19/02:00am 15.7 15.4 14.4 92 0.7 SSW 9 11 5 6 1018.1 1018.0 0.4
19/01:30am 15.8 15.5 14.5 92 0.7 SSW 9 11 5 6 1018.3 1018.2 0.4
19/01:00am 15.6 16.2 14.3 92 0.7 NW 4 7 2 4 1018.5 1018.4 0.4
19/12:30am 15.8 16.8 14.3 91 0.9 SW 2 6 1 3 1018.8 1018.7 0.4
19/12:00am 16.0 16.1 14.5 91 0.9 SSW 7 9 4 5 1019.1 1019.0 0.4
 
Date/Time
EDT
Temp
°C
App
Temp
°C
Dew
Point
°C
Rel
Hum
%
Delta-T
°C
Wind Press
QNH
hPa
Press
MSL
hPa
Rain since
9am
mm
Dir  Spd
km/h
Gust
km/h
Spd
kts
Gust
kts
18/11:30pm 16.0 16.1 14.5 91 0.9 SW 7 11 4 6 1019.2 1019.1 0.4
18/11:00pm 16.0 16.1 14.4 90 0.9 SSW 7 9 4 5 1019.3 1019.2 0.4
18/10:30pm 16.2 16.4 14.6 90 0.9 SSW 7 9 4 5 1019.4 1019.3 0.4
18/10:00pm 16.5 17.0 14.9 90 0.9 SW 6 7 3 4 1019.3 1019.2 0.4
18/09:30pm 16.4 16.7 14.6 89 1.0 WSW 6 9 3 5 1019.4 1019.3 0.4
18/09:00pm 16.8 17.0 14.8 88 1.2 SSW 7 9 4 5 1019.3 1019.2 0.4
18/08:30pm 16.9 18.4 14.7 87 1.3 CALM 0 0 0 0 1019.1 1019.0 0.4
18/08:00pm 17.0 16.7 14.5 85 1.4 S 9 9 5 5 1019.0 1018.9 0.4
18/07:30pm 17.2 16.4 13.9 81 1.9 S 11 13 6 7 1018.7 1018.6 0.4
18/07:00pm 18.0 15.4 13.3 74 2.6 ESE 19 24 10 13 1018.7 1018.6 0.2
18/06:30pm 19.5 19.4 13.9 70 3.2 SSE 7 11 4 6 1018.1 1018.0 0.2
18/06:00pm 20.2 19.8 12.9 63 4.1 SE 7 15 4 8 1017.9 1017.8 0.2
18/05:30pm 19.9 19.4 12.7 63 4.1 SE 7 9 4 5 1017.6 1017.5 0.2
18/05:00pm 21.2 20.0 12.9 59 4.7 E 11 22 6 12 1017.6 1017.5 0.2
18/04:30pm 21.4 21.0 13.1 59 4.7 ESE 7 11 4 6 1017.5 1017.4 0.2
18/04:00pm 21.7 19.6 12.3 55 5.3 ENE 15 24 8 13 1017.5 1017.4 0.2
18/03:30pm 21.3 21.0 13.2 60 4.6 ESE 7 17 4 9 1017.6 1017.5 0.2
18/03:00pm 22.5 20.7 12.2 52 5.8 E 13 17 7 9 1017.7 1017.6 0.2
18/02:30pm 22.6 21.2 12.3 52 5.8 E 11 20 6 11 1017.8 1017.7 0.2
18/02:00pm 22.6 20.1 12.3 52 5.8 E 17 24 9 13 1018.0 1017.9 0.2
18/01:30pm 22.6 20.2 12.5 53 5.8 E 17 26 9 14 1018.2 1018.1 0.2
18/01:00pm 22.6 20.6 12.8 54 5.6 E 15 24 8 13 1018.2 1018.1 0.2
18/12:30pm 21.9 20.3 13.8 60 4.7 ENE 15 26 8 14 1018.4 1018.3 0.2
18/12:00pm 22.5 20.6 14.1 59 4.9 ENE 17 28 9 15 1018.5 1018.4 0.2
18/11:30am 21.6 19.3 14.0 62 4.4 ENE 19 30 10 16 1018.6 1018.5 0.2
18/11:00am 22.0 21.3 15.4 66 3.9 ENE 13 20 7 11 1018.7 1018.6 0.2
18/10:30am 21.6 22.1 16.6 73 3.0 E 9 13 5 7 1018.7 1018.6 0.2
18/10:00am 20.3 21.0 16.1 77 2.5 NE 7 11 4 6 1018.7 1018.6 0.0
18/09:30am 19.5 18.8 16.5 83 1.8 E 15 22 8 12 1018.8 1018.7 0.0
18/09:00am 20.3 21.6 18.4 89 1.2 E 9 13 5 7 1018.9 1018.8 2.6
18/08:30am 19.5 20.6 18.0 91 0.9 SSE 9 13 5 7 1018.8 1018.7 2.6
18/08:00am 19.0 19.6 17.7 92 0.8 S 11 15 6 8 1018.6 1018.5 2.6
18/07:30am 18.6 19.1 17.4 93 0.7 SSE 11 13 6 7 1018.3 1018.2 2.6
18/07:00am 17.8 18.9 16.7 93 0.7 SSE 6 13 3 7 1018.0 1017.9 2.6
18/06:55am 17.9 19.8 16.8 93 0.7 SE 2 9 1 5 1017.9 1017.8 2.6
18/06:38am 17.3 18.2 16.2 93 0.7 NNW 6 11 3 6 1018.1 1018.0 2.6
18/06:30am 17.4 18.4 16.3 93 0.7 NNW 6 13 3 7 1018.1 1018.0 2.6
18/06:00am 17.1 18.3 15.8 92 0.8 SSW 4 7 2 4 1017.9 1017.8 2.6
18/05:54am 17.1 17.7 15.8 92 0.8 SSW 7 9 4 5 1017.9 1017.8 2.4

Other Formats:

Comma delimited format used in spreadsheet applications
http://www.bom.gov.au/fwo/IDN60801/IDN60801.95570.axf

JavaScript Object Notation format (JSON) in row-major order
http://www.bom.gov.au/fwo/IDN60801/IDN60801.95570.json